createdAt,value
2022-08-17T00:00:43.601Z,23.77
2022-08-17T00:03:15.187Z,20.90
2022-08-17T00:05:48.498Z,26.60
2022-08-17T00:08:18.924Z,20.52
2022-08-17T00:10:50.140Z,21.38
2022-08-17T00:13:24.185Z,25.85
2022-08-17T00:15:53.949Z,20.70
2022-08-17T00:19:06.395Z,21.90
2022-08-17T00:21:13.440Z,23.58
2022-08-17T00:23:48.995Z,24.00
2022-08-17T00:26:44.242Z,23.83
2022-08-17T00:29:08.964Z,23.85
2022-08-17T00:31:38.398Z,23.38
2022-08-17T00:34:08.893Z,36.30
2022-08-17T00:36:37.992Z,23.02
2022-08-17T00:39:06.816Z,28.00
2022-08-17T00:41:40.094Z,23.38
2022-08-17T00:44:12.396Z,26.73
2022-08-17T00:46:43.193Z,26.30
2022-08-17T00:49:15.760Z,26.02
2022-08-17T00:51:48.061Z,25.02
2022-08-17T00:54:20.668Z,28.55
2022-08-17T00:56:55.236Z,24.00
2022-08-17T00:59:26.901Z,24.67
2022-08-17T01:01:55.278Z,22.88
2022-08-17T01:04:24.236Z,27.55
2022-08-17T01:06:53.232Z,22.00
2022-08-17T01:09:22.388Z,22.02
2022-08-17T01:11:53.162Z,22.77
2022-08-17T01:14:22.476Z,24.35
2022-08-17T01:16:52.360Z,32.17
2022-08-17T01:21:54.016Z,23.48
2022-08-17T01:24:24.133Z,29.02
2022-08-17T01:26:52.829Z,22.98
2022-08-17T01:29:25.856Z,26.48
2022-08-17T01:31:56.492Z,22.02
2022-08-17T01:34:35.100Z,26.35
2022-08-17T01:37:12.692Z,27.60
2022-08-17T01:39:45.942Z,22.23
2022-08-17T01:42:20.060Z,24.10
2022-08-17T01:44:48.948Z,23.65
2022-08-17T01:47:17.742Z,22.45
2022-08-17T01:49:46.204Z,29.85
2022-08-17T01:52:15.292Z,23.45
2022-08-17T01:54:47.259Z,29.70
2022-08-17T01:57:16.424Z,24.17
2022-08-17T01:59:45.249Z,22.52
2022-08-17T02:02:30.573Z,29.95
2022-08-17T02:05:00.244Z,23.00
2022-08-17T02:07:29.187Z,23.98
2022-08-17T02:09:59.625Z,31.48
2022-08-17T02:12:37.624Z,22.52
2022-08-17T02:15:12.489Z,22.00
2022-08-17T02:17:41.847Z,26.23
2022-08-17T02:20:11.856Z,25.20
2022-08-17T02:22:41.619Z,28.48
2022-08-17T02:25:13.684Z,25.52
2022-08-17T02:27:42.408Z,22.52
2022-08-17T02:31:01.409Z,25.83
2022-08-17T02:33:04.239Z,21.27
2022-08-17T02:35:35.016Z,21.58
2022-08-17T02:38:06.175Z,24.05
2022-08-17T02:40:37.418Z,20.05
2022-08-17T02:43:06.452Z,26.52
2022-08-17T02:45:35.485Z,21.33
2022-08-17T02:48:05.461Z,20.70
2022-08-17T02:50:34.548Z,20.42
2022-08-17T02:53:04.759Z,23.25
2022-08-17T02:58:05.858Z,20.00
2022-08-17T03:00:37.187Z,25.05
2022-08-17T03:03:06.995Z,20.85
2022-08-17T03:05:37.125Z,32.67
2022-08-17T03:08:07.098Z,23.25
2022-08-17T03:10:40.167Z,23.27
2022-08-17T03:13:10.318Z,21.40
2022-08-17T03:15:40.763Z,26.10
2022-08-17T03:18:24.638Z,18.95
2022-08-17T03:20:55.331Z,26.42
2022-08-17T03:23:25.589Z,22.20
2022-08-17T03:25:54.950Z,25.95
2022-08-17T03:28:26.324Z,26.65
2022-08-17T03:30:55.235Z,21.25
2022-08-17T03:33:24.005Z,20.77
2022-08-17T03:35:53.249Z,20.75
2022-08-17T03:38:22.136Z,21.63
2022-08-17T03:40:58.527Z,21.33
2022-08-17T03:43:31.082Z,22.42
2022-08-17T03:46:28.402Z,23.67
2022-08-17T03:49:22.071Z,22.77
2022-08-17T03:52:08.454Z,20.88
2022-08-17T03:54:54.718Z,26.73
2022-08-17T03:57:23.446Z,19.13
2022-08-17T03:59:53.925Z,19.67
2022-08-17T04:02:26.074Z,20.08
2022-08-17T04:04:54.619Z,17.98
2022-08-17T04:07:32.099Z,26.80
2022-08-17T04:10:01.138Z,26.13
2022-08-17T04:12:31.453Z,17.65
2022-08-17T04:15:01.671Z,18.08
2022-08-17T04:17:30.783Z,21.73
2022-08-17T04:19:59.490Z,27.35
2022-08-17T04:22:31.204Z,20.17
2022-08-17T04:25:17.466Z,17.17
2022-08-17T04:27:46.337Z,17.95
2022-08-17T04:30:17.176Z,22.13
2022-08-17T04:33:09.852Z,17.95
2022-08-17T04:35:41.411Z,20.00
2022-08-17T04:38:12.089Z,22.83
2022-08-17T04:40:58.408Z,15.80
2022-08-17T04:43:28.369Z,19.30
2022-08-17T04:46:03.067Z,18.70
2022-08-17T04:48:36.973Z,23.63
2022-08-17T04:51:10.182Z,20.20
2022-08-17T04:53:40.505Z,17.48
2022-08-17T04:56:16.104Z,19.70
2022-08-17T04:58:46.292Z,21.55
2022-08-17T05:01:17.623Z,19.93
2022-08-17T05:03:53.392Z,21.02
2022-08-17T05:06:22.301Z,21.80
2022-08-17T05:08:50.907Z,14.75
2022-08-17T05:11:19.789Z,15.80
2022-08-17T05:13:50.457Z,15.55
2022-08-17T05:16:21.875Z,22.55
2022-08-17T05:18:50.982Z,18.67
2022-08-17T05:21:20.671Z,16.23
2022-08-17T05:23:53.960Z,17.15
2022-08-17T05:26:26.925Z,13.63
2022-08-17T05:29:00.401Z,17.67
2022-08-17T05:31:33.139Z,13.85
2022-08-17T05:34:02.034Z,17.55
2022-08-17T05:36:42.368Z,16.23
2022-08-17T05:39:16.881Z,19.92
2022-08-17T05:41:48.493Z,13.85
2022-08-17T05:44:17.985Z,14.50
2022-08-17T05:46:50.630Z,14.13
2022-08-17T05:49:22.608Z,11.18
2022-08-17T05:52:09.796Z,13.07
2022-08-17T05:54:48.602Z,12.35
2022-08-17T05:57:32.896Z,19.38
2022-08-17T06:00:08.480Z,18.48
2022-08-17T06:02:59.121Z,18.98
2022-08-17T06:05:50.621Z,17.83
2022-08-17T06:08:30.390Z,19.27
2022-08-17T06:11:02.002Z,18.38
2022-08-17T06:13:42.884Z,13.63
2022-08-17T06:16:25.946Z,17.38
2022-08-17T06:19:07.929Z,24.27
2022-08-17T06:21:40.542Z,18.77
2022-08-17T06:24:20.423Z,16.55
2022-08-17T06:26:49.892Z,14.85
2022-08-17T06:29:27.137Z,13.00
2022-08-17T06:31:55.591Z,20.50
2022-08-17T06:34:25.713Z,15.32
2022-08-17T06:39:33.926Z,14.48
2022-08-17T06:43:02.055Z,13.25
2022-08-17T06:45:05.315Z,14.20
2022-08-17T06:47:37.907Z,13.50
2022-08-17T06:50:15.651Z,14.50
2022-08-17T06:52:52.589Z,15.93
2022-08-17T06:55:26.333Z,15.45
2022-08-17T06:57:58.739Z,13.20
2022-08-17T07:00:33.631Z,17.75
2022-08-17T07:03:07.134Z,19.98
2022-08-17T07:05:45.635Z,18.25
2022-08-17T07:08:19.605Z,15.57
2022-08-17T07:10:51.182Z,13.77
2022-08-17T07:13:32.698Z,12.60
2022-08-17T07:16:09.325Z,17.05
2022-08-17T07:18:38.056Z,14.85
2022-08-17T07:21:17.974Z,19.13
2022-08-17T07:24:02.351Z,21.27
2022-08-17T07:26:31.022Z,16.02
2022-08-17T07:29:01.107Z,22.15
2022-08-17T07:31:33.579Z,14.43
2022-08-17T07:34:14.611Z,13.30
2022-08-17T07:36:44.736Z,20.45
2022-08-17T07:39:13.525Z,15.18
2022-08-17T07:41:53.047Z,9.82
2022-08-17T07:44:26.394Z,17.88
2022-08-17T07:47:12.910Z,18.17
2022-08-17T07:49:44.782Z,18.13
2022-08-17T07:52:51.409Z,9.93
2022-08-17T07:55:31.872Z,9.07
2022-08-17T07:58:01.929Z,14.45
2022-08-17T08:00:32.004Z,12.20
2022-08-17T08:03:04.919Z,13.65
2022-08-17T08:05:49.870Z,12.90
2022-08-17T08:08:40.905Z,15.75
2022-08-17T08:11:15.408Z,15.52
2022-08-17T08:13:45.879Z,14.68
2022-08-17T08:16:25.132Z,9.60
2022-08-17T08:18:57.793Z,11.95
2022-08-17T08:21:33.287Z,8.70
2022-08-17T08:24:15.665Z,11.13
2022-08-17T08:26:47.922Z,13.15
2022-08-17T08:29:28.470Z,13.77
2022-08-17T08:32:14.991Z,14.82
2022-08-17T08:35:02.314Z,14.00
2022-08-17T08:37:43.179Z,16.73
2022-08-17T08:40:27.046Z,14.85
2022-08-17T08:43:04.648Z,13.05
2022-08-17T08:45:39.762Z,11.35
2022-08-17T08:48:46.073Z,13.48
2022-08-17T08:51:11.974Z,12.38
2022-08-17T08:53:45.974Z,16.45
2022-08-17T08:56:21.450Z,14.68
2022-08-17T08:58:54.829Z,12.88
2022-08-17T09:01:29.785Z,18.23
2022-08-17T09:04:25.733Z,16.08
2022-08-17T09:07:10.188Z,15.68
2022-08-17T09:09:46.276Z,13.98
2022-08-17T09:12:22.881Z,13.52
2022-08-17T09:14:57.011Z,10.45
2022-08-17T09:17:32.679Z,12.85
2022-08-17T09:20:05.432Z,11.82
2022-08-17T09:22:38.458Z,12.25
2022-08-17T09:25:11.262Z,8.65
2022-08-17T09:27:50.020Z,9.55
2022-08-17T09:30:19.600Z,13.95
2022-08-17T09:32:55.378Z,14.65
2022-08-17T09:35:33.773Z,12.55
2022-08-17T09:38:17.633Z,8.32
2022-08-17T09:40:50.973Z,8.95
2022-08-17T09:43:30.670Z,9.07
2022-08-17T09:51:05.843Z,9.15
2022-08-17T09:53:37.325Z,15.98
2022-08-17T09:56:28.479Z,14.32
2022-08-17T09:59:22.564Z,7.35
2022-08-17T10:01:57.141Z,5.60
2022-08-17T10:04:37.870Z,8.65
2022-08-17T10:07:11.612Z,8.43
2022-08-17T10:09:48.936Z,6.60
2022-08-17T10:12:29.933Z,10.57
2022-08-17T10:15:19.175Z,10.07
2022-08-17T10:18:03.970Z,9.38
2022-08-17T10:20:38.071Z,10.52
2022-08-17T10:23:29.560Z,13.25
2022-08-17T10:26:14.226Z,8.52
2022-08-17T10:28:48.394Z,10.63
2022-08-17T10:31:35.963Z,9.70
2022-08-17T10:34:20.314Z,10.43
2022-08-17T10:36:54.799Z,7.75
2022-08-17T10:39:30.671Z,10.73
2022-08-17T10:42:04.921Z,9.95
2022-08-17T10:44:42.544Z,9.85
2022-08-17T10:47:15.478Z,11.65
2022-08-17T10:49:48.027Z,10.70
2022-08-17T10:52:48.563Z,9.65
2022-08-17T10:55:20.123Z,10.80
2022-08-17T10:57:50.818Z,15.82
2022-08-17T11:01:12.922Z,8.38
2022-08-17T11:03:54.938Z,12.63
2022-08-17T11:06:33.515Z,7.82
2022-08-17T11:09:21.696Z,7.78
2022-08-17T11:12:09.297Z,12.23
2022-08-17T11:14:48.632Z,10.63
2022-08-17T11:17:30.511Z,6.65
2022-08-17T11:20:15.288Z,11.15
2022-08-17T11:23:14.742Z,10.07
2022-08-17T11:25:45.114Z,9.30
2022-08-17T11:28:17.971Z,7.13
2022-08-17T11:30:52.103Z,6.75
2022-08-17T11:33:52.496Z,10.35
2022-08-17T11:36:32.337Z,6.00
2022-08-17T11:39:06.201Z,9.25
2022-08-17T11:41:40.548Z,12.13
2022-08-17T11:44:26.868Z,8.80
2022-08-17T11:47:26.738Z,7.00
2022-08-17T11:50:41.821Z,11.68
2022-08-17T11:54:03.524Z,8.32
2022-08-17T11:56:44.673Z,8.75
2022-08-17T11:59:50.631Z,12.70
2022-08-17T12:02:39.019Z,9.00
2022-08-17T12:05:28.442Z,7.43
2022-08-17T12:08:07.231Z,8.05
2022-08-17T12:10:49.922Z,9.85
2022-08-17T12:13:19.861Z,7.20
2022-08-17T12:15:50.626Z,8.13
2022-08-17T12:18:24.645Z,13.55
2022-08-17T12:21:12.230Z,9.38
2022-08-17T12:23:44.590Z,17.75
2022-08-17T12:26:19.578Z,10.77
2022-08-17T12:28:49.364Z,9.75
2022-08-17T12:31:24.672Z,9.98
2022-08-17T12:33:54.231Z,8.75
2022-08-17T12:36:25.943Z,10.32
2022-08-17T12:38:59.674Z,6.75
2022-08-17T12:41:47.152Z,8.88
2022-08-17T12:44:18.293Z,9.73
2022-08-17T12:46:50.734Z,11.48
2022-08-17T12:49:26.585Z,11.95
2022-08-17T12:52:02.168Z,10.18
2022-08-17T12:54:39.313Z,9.82
2022-08-17T12:57:13.787Z,8.88
2022-08-17T12:59:45.194Z,11.82
2022-08-17T13:02:22.236Z,10.65
2022-08-17T13:04:50.771Z,8.32
2022-08-17T13:10:02.984Z,10.15
2022-08-17T13:15:03.016Z,14.20
2022-08-17T13:17:36.074Z,11.90
2022-08-17T13:20:07.010Z,13.55
2022-08-17T13:22:35.371Z,12.15
2022-08-17T13:25:07.492Z,9.52
2022-08-17T13:27:38.422Z,12.45
2022-08-17T13:30:12.891Z,11.27
2022-08-17T13:32:45.028Z,10.00
2022-08-17T13:35:39.386Z,17.63
2022-08-17T13:38:11.424Z,8.32
2022-08-17T13:40:49.165Z,10.70
2022-08-17T13:43:48.654Z,13.68
2022-08-17T13:46:21.979Z,13.38
2022-08-17T13:49:00.317Z,11.30
2022-08-17T13:51:32.758Z,16.23
2022-08-17T13:54:07.858Z,14.10
2022-08-17T13:56:40.920Z,11.55
2022-08-17T13:59:13.871Z,15.63
2022-08-17T14:01:47.442Z,8.65
2022-08-17T14:04:24.982Z,11.93
2022-08-17T14:06:59.958Z,7.88
2022-08-17T14:09:34.890Z,12.15
2022-08-17T14:12:08.647Z,19.35
2022-08-17T14:14:38.878Z,9.98
2022-08-17T14:17:07.897Z,8.50
2022-08-17T14:19:36.845Z,17.08
2022-08-17T14:22:06.462Z,11.63
2022-08-17T14:24:40.000Z,21.30
2022-08-17T14:27:12.130Z,5.63
2022-08-17T14:29:42.686Z,11.73
2022-08-17T14:32:19.258Z,10.52
2022-08-17T14:34:49.654Z,8.02
2022-08-17T14:37:18.713Z,7.90
2022-08-17T14:39:47.586Z,14.00
2022-08-17T14:44:48.779Z,9.05
2022-08-17T14:47:17.596Z,14.77
2022-08-17T14:49:48.467Z,11.57
2022-08-17T14:52:21.931Z,9.68
2022-08-17T14:54:52.396Z,9.70
2022-08-17T14:57:33.196Z,9.40
2022-08-17T15:00:05.238Z,10.75
2022-08-17T15:02:45.597Z,12.63
2022-08-17T15:05:15.756Z,9.98
2022-08-17T15:07:44.719Z,14.07
2022-08-17T15:12:42.394Z,7.43
2022-08-17T15:15:15.120Z,10.20
2022-08-17T15:17:45.917Z,12.50
2022-08-17T15:20:17.170Z,13.00
2022-08-17T15:22:46.546Z,9.00
2022-08-17T15:25:15.776Z,12.65
2022-08-17T15:27:44.600Z,11.75
2022-08-17T15:30:15.719Z,9.93
2022-08-17T15:32:50.864Z,18.05
2022-08-17T15:35:27.068Z,13.75
2022-08-17T15:38:04.913Z,19.15
2022-08-17T15:40:38.060Z,11.27
2022-08-17T15:43:07.541Z,10.15
2022-08-17T15:45:37.702Z,9.57
2022-08-17T15:48:07.004Z,9.50
2022-08-17T15:50:36.245Z,13.77
2022-08-17T15:53:05.547Z,13.93
2022-08-17T15:55:34.555Z,11.18
2022-08-17T15:58:03.430Z,16.23
2022-08-17T16:00:36.432Z,14.57
2022-08-17T16:03:57.342Z,19.93
2022-08-17T16:06:12.197Z,17.63
2022-08-17T16:08:43.826Z,24.73
2022-08-17T16:11:13.873Z,9.13
2022-08-17T16:16:20.709Z,12.38
2022-08-17T16:18:54.705Z,17.08
2022-08-17T16:21:42.932Z,12.38
2022-08-17T16:24:13.232Z,10.02
2022-08-17T16:26:42.476Z,15.25
2022-08-17T16:29:11.586Z,13.80
2022-08-17T16:31:41.958Z,13.60
2022-08-17T16:34:17.045Z,10.27
2022-08-17T16:36:55.741Z,8.95
2022-08-17T16:39:29.204Z,18.85
2022-08-17T16:41:58.556Z,21.50
2022-08-17T16:44:29.101Z,12.32
2022-08-17T16:46:58.370Z,16.50
2022-08-17T16:49:37.465Z,20.17
2022-08-17T16:54:43.919Z,11.20
2022-08-17T16:57:13.669Z,11.45
2022-08-17T16:59:47.839Z,11.52
2022-08-17T17:02:17.598Z,13.27
2022-08-17T17:04:52.189Z,14.70
2022-08-17T17:07:53.434Z,13.50
2022-08-17T17:10:24.720Z,14.30
2022-08-17T17:13:02.006Z,12.98
2022-08-17T17:15:43.196Z,12.43
2022-08-17T17:20:47.519Z,10.70
2022-08-17T17:23:25.077Z,14.75
2022-08-17T17:26:06.655Z,13.20
2022-08-17T17:28:43.536Z,14.82
2022-08-17T17:31:16.360Z,15.68
2022-08-17T17:33:48.431Z,18.73
2022-08-17T17:36:26.697Z,17.25
2022-08-17T17:39:00.251Z,14.40
2022-08-17T17:41:32.058Z,19.80
2022-08-17T17:44:04.444Z,24.40
2022-08-17T17:46:35.479Z,19.13
2022-08-17T17:49:04.736Z,17.35
2022-08-17T17:52:03.668Z,13.82
2022-08-17T17:54:38.300Z,20.85
2022-08-17T17:57:12.227Z,14.02
2022-08-17T17:59:46.455Z,16.75
2022-08-17T18:02:39.714Z,15.70
2022-08-17T18:05:17.626Z,19.27
2022-08-17T18:07:53.295Z,20.25
2022-08-17T18:10:30.068Z,20.35
2022-08-17T18:13:11.514Z,15.95
2022-08-17T18:15:51.142Z,21.35
2022-08-17T18:18:37.859Z,19.45
2022-08-17T18:21:16.787Z,18.88
2022-08-17T18:23:54.998Z,20.95
2022-08-17T18:26:55.095Z,16.65
2022-08-17T18:29:42.413Z,13.77
2022-08-17T18:32:29.724Z,18.63
2022-08-17T18:35:01.489Z,23.85
2022-08-17T18:37:48.865Z,19.70
2022-08-17T18:40:37.737Z,15.32
2022-08-17T18:43:11.216Z,17.58
2022-08-17T18:45:44.051Z,22.98
2022-08-17T18:48:21.722Z,18.35
2022-08-17T18:50:51.458Z,19.30
2022-08-17T18:53:33.512Z,15.20
2022-08-17T18:56:34.058Z,24.98
2022-08-17T18:59:17.930Z,20.10
2022-08-17T19:02:05.145Z,14.80
2022-08-17T19:04:41.480Z,18.95
2022-08-17T19:07:25.155Z,20.75
2022-08-17T19:09:58.258Z,22.73
2022-08-17T19:12:32.310Z,20.38
2022-08-17T19:15:01.537Z,20.27
2022-08-17T19:17:41.277Z,19.63
2022-08-17T19:20:16.138Z,18.13
2022-08-17T19:22:55.645Z,17.42
2022-08-17T19:25:28.185Z,17.45
2022-08-17T19:28:03.546Z,21.90
2022-08-17T19:30:32.916Z,21.60
2022-08-17T19:33:02.992Z,22.35
2022-08-17T19:35:42.217Z,23.10
2022-08-17T19:38:19.273Z,19.10
2022-08-17T19:40:58.701Z,20.92
2022-08-17T19:43:35.053Z,18.58
2022-08-17T19:46:11.941Z,21.15
2022-08-17T19:48:46.677Z,18.27
2022-08-17T19:51:21.241Z,25.27
2022-08-17T19:54:05.532Z,19.58
2022-08-17T19:56:41.187Z,28.85
2022-08-17T19:59:15.274Z,24.33
2022-08-17T20:01:47.935Z,23.88
2022-08-17T20:04:22.662Z,26.55
2022-08-17T20:07:04.936Z,17.50
2022-08-17T20:09:35.784Z,17.00
2022-08-17T20:12:08.045Z,25.63
2022-08-17T20:14:53.388Z,20.98
2022-08-17T20:17:28.360Z,19.27
2022-08-17T20:20:03.540Z,21.48
2022-08-17T20:22:49.656Z,19.70
2022-08-17T20:25:30.249Z,23.80
2022-08-17T20:28:05.716Z,19.98
2022-08-17T20:30:39.271Z,19.80
2022-08-17T20:33:12.490Z,23.70
2022-08-17T20:36:02.548Z,28.48
2022-08-17T20:38:40.957Z,23.38
2022-08-17T20:41:15.760Z,22.38
2022-08-17T20:43:49.100Z,24.40
2022-08-17T20:46:28.252Z,19.30
2022-08-17T20:48:59.042Z,23.17
2022-08-17T20:51:32.206Z,24.80
2022-08-17T20:54:09.572Z,22.05
2022-08-17T20:56:49.717Z,23.90
2022-08-17T20:59:56.400Z,23.08
2022-08-17T21:02:28.481Z,20.83
2022-08-17T21:05:04.049Z,20.85
2022-08-17T21:07:59.934Z,30.83
2022-08-17T21:10:38.004Z,27.00
2022-08-17T21:13:30.735Z,18.58
2022-08-17T21:16:02.531Z,20.98
2022-08-17T21:18:38.686Z,18.65
2022-08-17T21:21:19.355Z,25.15
2022-08-17T21:23:59.603Z,24.23
2022-08-17T21:26:32.839Z,30.95
2022-08-17T21:29:29.774Z,18.92
2022-08-17T21:32:24.208Z,19.58
2022-08-17T21:35:27.380Z,26.02
2022-08-17T21:38:03.701Z,23.80
2022-08-17T21:40:34.569Z,23.08
2022-08-17T21:43:09.171Z,24.10
2022-08-17T21:45:41.338Z,30.42
2022-08-17T21:48:14.896Z,23.20
2022-08-17T21:50:48.716Z,20.20
2022-08-17T21:53:27.046Z,22.27
2022-08-17T21:55:59.305Z,28.52
2022-08-17T21:58:30.955Z,24.02
2022-08-17T22:01:15.210Z,29.83
2022-08-17T22:03:43.990Z,26.25
2022-08-17T22:06:27.743Z,22.58
2022-08-17T22:09:05.745Z,25.48
2022-08-17T22:11:52.625Z,25.77
2022-08-17T22:14:22.650Z,23.73
2022-08-17T22:17:07.691Z,29.88
2022-08-17T22:19:36.937Z,23.65
2022-08-17T22:22:08.546Z,21.23
2022-08-17T22:24:37.983Z,22.67
2022-08-17T22:27:11.718Z,21.80
2022-08-17T22:29:59.067Z,21.13
2022-08-17T22:32:38.077Z,25.70
2022-08-17T22:35:37.505Z,28.30
2022-08-17T22:38:31.033Z,34.97
2022-08-17T22:41:16.704Z,21.73
2022-08-17T22:43:45.737Z,27.58
2022-08-17T22:46:15.084Z,23.73
2022-08-17T22:48:49.320Z,24.33
2022-08-17T22:51:20.957Z,22.35
2022-08-17T22:54:10.689Z,25.67
2022-08-17T22:56:57.235Z,22.45
2022-08-17T22:59:44.977Z,23.38
2022-08-17T23:02:20.471Z,27.40
2022-08-17T23:04:52.513Z,24.08
2022-08-17T23:07:22.041Z,22.75
2022-08-17T23:09:53.164Z,22.90
2022-08-17T23:12:26.509Z,22.63
2022-08-17T23:15:00.718Z,22.85
2022-08-17T23:17:33.849Z,23.13
2022-08-17T23:20:08.512Z,27.67
2022-08-17T23:22:37.859Z,27.67
2022-08-17T23:25:28.037Z,27.95
2022-08-17T23:27:58.558Z,26.58
2022-08-17T23:30:28.595Z,21.98
2022-08-17T23:32:59.627Z,22.95
2022-08-17T23:35:40.149Z,29.33
2022-08-17T23:38:09.906Z,27.02
2022-08-17T23:40:40.901Z,30.07
2022-08-17T23:43:23.665Z,26.58
2022-08-17T23:45:55.145Z,24.25
2022-08-17T23:48:34.973Z,32.17
2022-08-17T23:51:12.234Z,28.23
2022-08-17T23:53:46.286Z,32.30
2022-08-17T23:56:18.703Z,27.35
2022-08-17T23:58:47.153Z,28.63
